sensor_id;sensor_type;location;lat;lon;timestamp;P1;durP1;ratioP1;P2;durP2;ratioP2
7917;SDS011;4004;42.624;23.386;2023-12-04T00:02:05;6.78;;;5.53;;
7917;SDS011;4004;42.624;23.386;2023-12-04T00:04:33;7.35;;;5.70;;
7917;SDS011;4004;42.624;23.386;2023-12-04T00:07:00;7.07;;;5.55;;
7917;SDS011;4004;42.624;23.386;2023-12-04T00:09:27;6.87;;;5.37;;
7917;SDS011;4004;42.624;23.386;2023-12-04T00:11:53;7.32;;;5.50;;
7917;SDS011;4004;42.624;23.386;2023-12-04T00:14:20;6.80;;;5.95;;
7917;SDS011;4004;42.624;23.386;2023-12-04T00:16:47;6.70;;;5.72;;
7917;SDS011;4004;42.624;23.386;2023-12-04T00:19:14;5.93;;;5.30;;
7917;SDS011;4004;42.624;23.386;2023-12-04T00:21:42;6.38;;;5.43;;
7917;SDS011;4004;42.624;23.386;2023-12-04T00:24:10;6.50;;;5.45;;
7917;SDS011;4004;42.624;23.386;2023-12-04T00:26:37;5.97;;;5.10;;
7917;SDS011;4004;42.624;23.386;2023-12-04T00:29:04;8.15;;;5.70;;
7917;SDS011;4004;42.624;23.386;2023-12-04T00:31:30;6.78;;;5.63;;
7917;SDS011;4004;42.624;23.386;2023-12-04T00:33:57;5.95;;;4.93;;
7917;SDS011;4004;42.624;23.386;2023-12-04T00:36:24;8.70;;;5.95;;
7917;SDS011;4004;42.624;23.386;2023-12-04T00:38:52;6.45;;;4.85;;
7917;SDS011;4004;42.624;23.386;2023-12-04T00:41:19;6.25;;;5.18;;
7917;SDS011;4004;42.624;23.386;2023-12-04T00:43:46;6.15;;;5.20;;
7917;SDS011;4004;42.624;23.386;2023-12-04T00:46:13;6.78;;;5.50;;
7917;SDS011;4004;42.624;23.386;2023-12-04T00:48:40;5.97;;;5.00;;
7917;SDS011;4004;42.624;23.386;2023-12-04T00:51:07;6.38;;;5.22;;
7917;SDS011;4004;42.624;23.386;2023-12-04T00:53:34;7.28;;;5.13;;
7917;SDS011;4004;42.624;23.386;2023-12-04T00:56:03;7.95;;;5.60;;
7917;SDS011;4004;42.624;23.386;2023-12-04T00:58:31;7.07;;;5.97;;
7917;SDS011;4004;42.624;23.386;2023-12-04T01:00:58;6.65;;;5.88;;
7917;SDS011;4004;42.624;23.386;2023-12-04T01:03:25;7.10;;;5.57;;
7917;SDS011;4004;42.624;23.386;2023-12-04T01:05:52;7.18;;;6.00;;
7917;SDS011;4004;42.624;23.386;2023-12-04T01:08:19;6.70;;;5.80;;
7917;SDS011;4004;42.624;23.386;2023-12-04T01:10:46;7.40;;;5.07;;
7917;SDS011;4004;42.624;23.386;2023-12-04T01:13:14;6.78;;;5.68;;
7917;SDS011;4004;42.624;23.386;2023-12-04T01:15:41;6.32;;;5.63;;
7917;SDS011;4004;42.624;23.386;2023-12-04T01:18:09;6.47;;;5.40;;
7917;SDS011;4004;42.624;23.386;2023-12-04T01:20:36;6.75;;;6.05;;
7917;SDS011;4004;42.624;23.386;2023-12-04T01:23:03;6.88;;;6.18;;
7917;SDS011;4004;42.624;23.386;2023-12-04T01:25:30;6.80;;;5.63;;
7917;SDS011;4004;42.624;23.386;2023-12-04T01:27:57;7.03;;;5.78;;
7917;SDS011;4004;42.624;23.386;2023-12-04T01:30:25;7.38;;;6.13;;
7917;SDS011;4004;42.624;23.386;2023-12-04T01:32:52;6.32;;;5.57;;
7917;SDS011;4004;42.624;23.386;2023-12-04T01:35:19;8.82;;;6.10;;
7917;SDS011;4004;42.624;23.386;2023-12-04T01:37:46;7.75;;;6.70;;
7917;SDS011;4004;42.624;23.386;2023-12-04T01:40:13;8.20;;;6.63;;
7917;SDS011;4004;42.624;23.386;2023-12-04T01:42:40;7.00;;;6.30;;
7917;SDS011;4004;42.624;23.386;2023-12-04T01:45:09;9.80;;;7.25;;
7917;SDS011;4004;42.624;23.386;2023-12-04T01:47:37;9.52;;;7.35;;
7917;SDS011;4004;42.624;23.386;2023-12-04T01:50:05;8.65;;;6.00;;
7917;SDS011;4004;42.624;23.386;2023-12-04T01:52:33;9.80;;;6.53;;
7917;SDS011;4004;42.624;23.386;2023-12-04T01:55:02;8.07;;;6.80;;
7917;SDS011;4004;42.624;23.386;2023-12-04T01:57:29;9.38;;;6.50;;
7917;SDS011;4004;42.624;23.386;2023-12-04T01:59:56;6.50;;;5.68;;
7917;SDS011;4004;42.624;23.386;2023-12-04T02:02:23;7.55;;;6.40;;
7917;SDS011;4004;42.624;23.386;2023-12-04T02:04:52;10.15;;;6.70;;
7917;SDS011;4004;42.624;23.386;2023-12-04T02:07:20;7.78;;;6.50;;
7917;SDS011;4004;42.624;23.386;2023-12-04T02:09:47;6.70;;;6.00;;
7917;SDS011;4004;42.624;23.386;2023-12-04T02:12:14;8.75;;;6.65;;
7917;SDS011;4004;42.624;23.386;2023-12-04T02:14:41;9.85;;;7.05;;
7917;SDS011;4004;42.624;23.386;2023-12-04T02:17:08;8.07;;;6.50;;
7917;SDS011;4004;42.624;23.386;2023-12-04T02:19:36;8.50;;;6.80;;
7917;SDS011;4004;42.624;23.386;2023-12-04T02:22:04;7.45;;;6.65;;
7917;SDS011;4004;42.624;23.386;2023-12-04T02:24:33;7.97;;;7.13;;
7917;SDS011;4004;42.624;23.386;2023-12-04T02:27:07;8.98;;;6.40;;
7917;SDS011;4004;42.624;23.386;2023-12-04T02:29:39;8.98;;;6.38;;
7917;SDS011;4004;42.624;23.386;2023-12-04T02:32:11;7.78;;;6.25;;
7917;SDS011;4004;42.624;23.386;2023-12-04T02:34:43;9.68;;;6.97;;
7917;SDS011;4004;42.624;23.386;2023-12-04T02:37:11;9.02;;;6.47;;
7917;SDS011;4004;42.624;23.386;2023-12-04T02:39:41;6.90;;;6.20;;
7917;SDS011;4004;42.624;23.386;2023-12-04T02:42:09;7.53;;;6.53;;
7917;SDS011;4004;42.624;23.386;2023-12-04T02:44:37;9.18;;;7.22;;
7917;SDS011;4004;42.624;23.386;2023-12-04T02:47:04;8.27;;;6.32;;
7917;SDS011;4004;42.624;23.386;2023-12-04T02:49:31;5.93;;;5.32;;
7917;SDS011;4004;42.624;23.386;2023-12-04T02:51:58;7.90;;;6.78;;
7917;SDS011;4004;42.624;23.386;2023-12-04T02:54:25;7.32;;;5.90;;
7917;SDS011;4004;42.624;23.386;2023-12-04T02:56:53;6.78;;;5.65;;
7917;SDS011;4004;42.624;23.386;2023-12-04T02:59:20;10.77;;;5.90;;
7917;SDS011;4004;42.624;23.386;2023-12-04T03:01:47;8.35;;;6.30;;
7917;SDS011;4004;42.624;23.386;2023-12-04T03:04:14;7.18;;;6.03;;
7917;SDS011;4004;42.624;23.386;2023-12-04T03:06:41;6.68;;;5.97;;
7917;SDS011;4004;42.624;23.386;2023-12-04T03:09:07;7.72;;;6.53;;
7917;SDS011;4004;42.624;23.386;2023-12-04T03:11:34;7.22;;;6.07;;
7917;SDS011;4004;42.624;23.386;2023-12-04T03:14:03;8.15;;;6.60;;
7917;SDS011;4004;42.624;23.386;2023-12-04T03:16:29;8.93;;;5.95;;
7917;SDS011;4004;42.624;23.386;2023-12-04T03:18:56;7.70;;;6.25;;
7917;SDS011;4004;42.624;23.386;2023-12-04T03:21:23;6.80;;;5.97;;
7917;SDS011;4004;42.624;23.386;2023-12-04T03:23:50;7.00;;;6.00;;
7917;SDS011;4004;42.624;23.386;2023-12-04T03:26:17;8.63;;;6.45;;
7917;SDS011;4004;42.624;23.386;2023-12-04T03:28:44;7.53;;;6.70;;
7917;SDS011;4004;42.624;23.386;2023-12-04T03:31:12;7.97;;;5.68;;
7917;SDS011;4004;42.624;23.386;2023-12-04T03:33:39;10.50;;;6.65;;
7917;SDS011;4004;42.624;23.386;2023-12-04T03:36:06;9.20;;;6.65;;
7917;SDS011;4004;42.624;23.386;2023-12-04T03:38:34;7.45;;;6.38;;
7917;SDS011;4004;42.624;23.386;2023-12-04T03:41:01;6.90;;;6.03;;
7917;SDS011;4004;42.624;23.386;2023-12-04T03:43:28;7.97;;;6.40;;
7917;SDS011;4004;42.624;23.386;2023-12-04T03:45:55;6.57;;;5.90;;
7917;SDS011;4004;42.624;23.386;2023-12-04T03:48:23;6.32;;;5.72;;
7917;SDS011;4004;42.624;23.386;2023-12-04T03:50:50;9.00;;;7.10;;
7917;SDS011;4004;42.624;23.386;2023-12-04T03:53:17;7.38;;;6.47;;
7917;SDS011;4004;42.624;23.386;2023-12-04T03:55:44;9.90;;;7.15;;
7917;SDS011;4004;42.624;23.386;2023-12-04T03:58:10;8.77;;;6.45;;
7917;SDS011;4004;42.624;23.386;2023-12-04T04:00:37;8.75;;;7.05;;
7917;SDS011;4004;42.624;23.386;2023-12-04T04:03:06;8.68;;;7.70;;
7917;SDS011;4004;42.624;23.386;2023-12-04T04:05:34;7.78;;;6.97;;
7917;SDS011;4004;42.624;23.386;2023-12-04T04:08:01;8.60;;;6.85;;
7917;SDS011;4004;42.624;23.386;2023-12-04T04:10:30;8.40;;;7.43;;
7917;SDS011;4004;42.624;23.386;2023-12-04T04:12:57;8.68;;;7.20;;
7917;SDS011;4004;42.624;23.386;2023-12-04T04:15:24;8.73;;;5.93;;
7917;SDS011;4004;42.624;23.386;2023-12-04T04:17:52;11.45;;;7.28;;
7917;SDS011;4004;42.624;23.386;2023-12-04T04:20:19;8.77;;;6.22;;
7917;SDS011;4004;42.624;23.386;2023-12-04T04:22:48;9.05;;;6.70;;
7917;SDS011;4004;42.624;23.386;2023-12-04T04:25:15;9.45;;;6.28;;
7917;SDS011;4004;42.624;23.386;2023-12-04T04:27:43;9.18;;;6.43;;
7917;SDS011;4004;42.624;23.386;2023-12-04T04:30:11;7.30;;;6.38;;
7917;SDS011;4004;42.624;23.386;2023-12-04T04:32:38;8.40;;;6.75;;
7917;SDS011;4004;42.624;23.386;2023-12-04T04:35:05;7.72;;;6.47;;
7917;SDS011;4004;42.624;23.386;2023-12-04T04:37:33;7.60;;;5.95;;
7917;SDS011;4004;42.624;23.386;2023-12-04T04:40:02;7.65;;;6.35;;
7917;SDS011;4004;42.624;23.386;2023-12-04T04:42:29;7.15;;;6.40;;
7917;SDS011;4004;42.624;23.386;2023-12-04T04:44:56;7.95;;;6.07;;
7917;SDS011;4004;42.624;23.386;2023-12-04T04:47:23;6.32;;;5.60;;
7917;SDS011;4004;42.624;23.386;2023-12-04T04:49:50;8.05;;;6.13;;
7917;SDS011;4004;42.624;23.386;2023-12-04T04:52:16;11.15;;;6.78;;
7917;SDS011;4004;42.624;23.386;2023-12-04T04:54:43;7.45;;;5.57;;
7917;SDS011;4004;42.624;23.386;2023-12-04T04:57:11;7.97;;;6.40;;
7917;SDS011;4004;42.624;23.386;2023-12-04T04:59:38;6.72;;;5.60;;
7917;SDS011;4004;42.624;23.386;2023-12-04T05:02:05;8.82;;;5.97;;
7917;SDS011;4004;42.624;23.386;2023-12-04T05:04:32;6.80;;;5.82;;
7917;SDS011;4004;42.624;23.386;2023-12-04T05:06:59;13.70;;;6.57;;
7917;SDS011;4004;42.624;23.386;2023-12-04T05:09:26;6.82;;;6.03;;
7917;SDS011;4004;42.624;23.386;2023-12-04T05:11:53;23.08;;;6.75;;
7917;SDS011;4004;42.624;23.386;2023-12-04T05:14:21;9.45;;;6.30;;
7917;SDS011;4004;42.624;23.386;2023-12-04T05:16:48;9.45;;;5.97;;
7917;SDS011;4004;42.624;23.386;2023-12-04T05:19:15;7.07;;;5.78;;
7917;SDS011;4004;42.624;23.386;2023-12-04T05:21:42;17.13;;;5.70;;
7917;SDS011;4004;42.624;23.386;2023-12-04T05:24:10;8.18;;;5.68;;
7917;SDS011;4004;42.624;23.386;2023-12-04T05:26:37;7.00;;;5.30;;
7917;SDS011;4004;42.624;23.386;2023-12-04T05:29:04;8.43;;;5.70;;
7917;SDS011;4004;42.624;23.386;2023-12-04T05:31:32;6.90;;;5.75;;
7917;SDS011;4004;42.624;23.386;2023-12-04T05:33:59;10.95;;;5.45;;
7917;SDS011;4004;42.624;23.386;2023-12-04T05:36:26;6.03;;;5.18;;
7917;SDS011;4004;42.624;23.386;2023-12-04T05:38:53;6.50;;;5.75;;
7917;SDS011;4004;42.624;23.386;2023-12-04T05:41:20;8.40;;;5.65;;
7917;SDS011;4004;42.624;23.386;2023-12-04T05:43:47;12.27;;;6.90;;
7917;SDS011;4004;42.624;23.386;2023-12-04T05:46:14;8.52;;;6.72;;
7917;SDS011;4004;42.624;23.386;2023-12-04T05:48:42;8.27;;;6.47;;
7917;SDS011;4004;42.624;23.386;2023-12-04T05:51:10;6.90;;;6.10;;
7917;SDS011;4004;42.624;23.386;2023-12-04T05:53:37;7.93;;;6.50;;
7917;SDS011;4004;42.624;23.386;2023-12-04T05:56:04;7.95;;;6.93;;
7917;SDS011;4004;42.624;23.386;2023-12-04T05:58:34;13.43;;;6.72;;
7917;SDS011;4004;42.624;23.386;2023-12-04T06:01:00;12.57;;;7.10;;
7917;SDS011;4004;42.624;23.386;2023-12-04T06:03:27;8.27;;;6.15;;
7917;SDS011;4004;42.624;23.386;2023-12-04T06:05:56;8.85;;;6.88;;
7917;SDS011;4004;42.624;23.386;2023-12-04T06:08:23;11.07;;;7.45;;
7917;SDS011;4004;42.624;23.386;2023-12-04T06:10:49;13.10;;;7.47;;
7917;SDS011;4004;42.624;23.386;2023-12-04T06:13:16;10.23;;;7.78;;
7917;SDS011;4004;42.624;23.386;2023-12-04T06:15:44;11.00;;;7.50;;
7917;SDS011;4004;42.624;23.386;2023-12-04T06:18:11;10.43;;;8.65;;
7917;SDS011;4004;42.624;23.386;2023-12-04T06:20:37;9.27;;;7.07;;
7917;SDS011;4004;42.624;23.386;2023-12-04T06:23:06;11.77;;;7.95;;
7917;SDS011;4004;42.624;23.386;2023-12-04T06:25:33;12.85;;;8.63;;
7917;SDS011;4004;42.624;23.386;2023-12-04T06:28:01;11.63;;;8.57;;
7917;SDS011;4004;42.624;23.386;2023-12-04T06:30:28;9.15;;;8.05;;
7917;SDS011;4004;42.624;23.386;2023-12-04T06:32:56;12.70;;;8.25;;
7917;SDS011;4004;42.624;23.386;2023-12-04T06:35:23;11.77;;;7.75;;
7917;SDS011;4004;42.624;23.386;2023-12-04T06:37:51;10.68;;;8.13;;
7917;SDS011;4004;42.624;23.386;2023-12-04T06:40:22;14.00;;;7.90;;
7917;SDS011;4004;42.624;23.386;2023-12-04T06:42:49;12.43;;;8.27;;
7917;SDS011;4004;42.624;23.386;2023-12-04T06:45:17;9.55;;;7.05;;
7917;SDS011;4004;42.624;23.386;2023-12-04T06:47:45;10.77;;;7.30;;
7917;SDS011;4004;42.624;23.386;2023-12-04T06:50:14;12.23;;;7.93;;
7917;SDS011;4004;42.624;23.386;2023-12-04T06:52:41;9.60;;;6.55;;
7917;SDS011;4004;42.624;23.386;2023-12-04T06:55:09;9.18;;;7.20;;
7917;SDS011;4004;42.624;23.386;2023-12-04T06:57:37;8.45;;;6.65;;
7917;SDS011;4004;42.624;23.386;2023-12-04T07:00:04;7.47;;;6.50;;
7917;SDS011;4004;42.624;23.386;2023-12-04T07:02:33;8.57;;;5.80;;
7917;SDS011;4004;42.624;23.386;2023-12-04T07:05:00;9.10;;;6.78;;
7917;SDS011;4004;42.624;23.386;2023-12-04T07:07:28;9.30;;;7.20;;
7917;SDS011;4004;42.624;23.386;2023-12-04T07:09:55;10.47;;;6.60;;
7917;SDS011;4004;42.624;23.386;2023-12-04T07:12:22;14.35;;;7.30;;
7917;SDS011;4004;42.624;23.386;2023-12-04T07:14:50;9.52;;;7.05;;
7917;SDS011;4004;42.624;23.386;2023-12-04T07:17:17;11.37;;;6.60;;
7917;SDS011;4004;42.624;23.386;2023-12-04T07:19:45;8.95;;;6.57;;
7917;SDS011;4004;42.624;23.386;2023-12-04T07:22:12;12.10;;;6.87;;
7917;SDS011;4004;42.624;23.386;2023-12-04T07:24:39;12.90;;;7.67;;
7917;SDS011;4004;42.624;23.386;2023-12-04T07:27:07;10.53;;;7.60;;
7917;SDS011;4004;42.624;23.386;2023-12-04T07:29:34;9.53;;;6.57;;
7917;SDS011;4004;42.624;23.386;2023-12-04T07:32:04;9.03;;;6.60;;
7917;SDS011;4004;42.624;23.386;2023-12-04T07:34:32;12.35;;;6.95;;
7917;SDS011;4004;42.624;23.386;2023-12-04T07:36:59;7.50;;;6.27;;
7917;SDS011;4004;42.624;23.386;2023-12-04T07:39:26;7.90;;;6.63;;
7917;SDS011;4004;42.624;23.386;2023-12-04T07:41:53;8.20;;;6.00;;
7917;SDS011;4004;42.624;23.386;2023-12-04T07:44:19;8.60;;;6.67;;
7917;SDS011;4004;42.624;23.386;2023-12-04T07:46:46;7.17;;;5.93;;
7917;SDS011;4004;42.624;23.386;2023-12-04T07:49:15;7.20;;;6.23;;
7917;SDS011;4004;42.624;23.386;2023-12-04T07:51:41;6.33;;;5.53;;
7917;SDS011;4004;42.624;23.386;2023-12-04T07:54:08;7.63;;;6.40;;
7917;SDS011;4004;42.624;23.386;2023-12-04T07:56:35;7.90;;;5.63;;
7917;SDS011;4004;42.624;23.386;2023-12-04T07:59:02;10.53;;;5.80;;
7917;SDS011;4004;42.624;23.386;2023-12-04T08:01:29;7.07;;;5.83;;
7917;SDS011;4004;42.624;23.386;2023-12-04T08:03:56;7.53;;;5.47;;
7917;SDS011;4004;42.624;23.386;2023-12-04T08:06:24;9.80;;;6.27;;
7917;SDS011;4004;42.624;23.386;2023-12-04T08:08:51;13.07;;;6.50;;
7917;SDS011;4004;42.624;23.386;2023-12-04T08:11:18;14.67;;;6.83;;
7917;SDS011;4004;42.624;23.386;2023-12-04T08:13:45;13.60;;;6.43;;
7917;SDS011;4004;42.624;23.386;2023-12-04T08:16:15;8.00;;;6.10;;
7917;SDS011;4004;42.624;23.386;2023-12-04T08:18:42;6.97;;;5.30;;
7917;SDS011;4004;42.624;23.386;2023-12-04T08:21:09;8.97;;;5.67;;
7917;SDS011;4004;42.624;23.386;2023-12-04T08:23:38;7.93;;;5.93;;
7917;SDS011;4004;42.624;23.386;2023-12-04T08:26:05;10.03;;;5.37;;
7917;SDS011;4004;42.624;23.386;2023-12-04T08:28:33;12.23;;;6.10;;
7917;SDS011;4004;42.624;23.386;2023-12-04T08:31:00;8.90;;;5.93;;
7917;SDS011;4004;42.624;23.386;2023-12-04T08:33:27;8.80;;;6.27;;
7917;SDS011;4004;42.624;23.386;2023-12-04T08:35:54;8.30;;;5.67;;
7917;SDS011;4004;42.624;23.386;2023-12-04T08:38:21;10.67;;;6.10;;
7917;SDS011;4004;42.624;23.386;2023-12-04T08:40:49;9.53;;;5.63;;
7917;SDS011;4004;42.624;23.386;2023-12-04T08:43:16;7.23;;;4.70;;
7917;SDS011;4004;42.624;23.386;2023-12-04T08:45:43;7.97;;;4.50;;
7917;SDS011;4004;42.624;23.386;2023-12-04T08:48:11;6.13;;;4.73;;
7917;SDS011;4004;42.624;23.386;2023-12-04T08:50:38;6.00;;;4.60;;
7917;SDS011;4004;42.624;23.386;2023-12-04T08:53:05;8.03;;;5.00;;
7917;SDS011;4004;42.624;23.386;2023-12-04T08:55:32;7.40;;;5.23;;
7917;SDS011;4004;42.624;23.386;2023-12-04T08:58:00;12.63;;;5.70;;
7917;SDS011;4004;42.624;23.386;2023-12-04T09:00:27;6.43;;;4.63;;
7917;SDS011;4004;42.624;23.386;2023-12-04T09:02:54;5.50;;;4.80;;
7917;SDS011;4004;42.624;23.386;2023-12-04T09:05:21;9.63;;;4.80;;
7917;SDS011;4004;42.624;23.386;2023-12-04T09:07:48;8.87;;;4.90;;
7917;SDS011;4004;42.624;23.386;2023-12-04T09:10:15;7.00;;;4.67;;
7917;SDS011;4004;42.624;23.386;2023-12-04T09:12:42;8.30;;;4.90;;
7917;SDS011;4004;42.624;23.386;2023-12-04T09:15:12;6.60;;;4.07;;
7917;SDS011;4004;42.624;23.386;2023-12-04T09:17:39;7.10;;;4.60;;
7917;SDS011;4004;42.624;23.386;2023-12-04T09:20:06;6.07;;;4.67;;
7917;SDS011;4004;42.624;23.386;2023-12-04T09:22:34;6.57;;;4.27;;
7917;SDS011;4004;42.624;23.386;2023-12-04T09:25:03;6.57;;;4.40;;
7917;SDS011;4004;42.624;23.386;2023-12-04T09:27:31;11.67;;;4.83;;
7917;SDS011;4004;42.624;23.386;2023-12-04T09:29:58;6.73;;;5.17;;
7917;SDS011;4004;42.624;23.386;2023-12-04T09:32:26;7.70;;;4.50;;
7917;SDS011;4004;42.624;23.386;2023-12-04T09:34:53;5.97;;;4.67;;
7917;SDS011;4004;42.624;23.386;2023-12-04T09:37:20;5.97;;;4.30;;
7917;SDS011;4004;42.624;23.386;2023-12-04T09:39:47;8.00;;;4.93;;
7917;SDS011;4004;42.624;23.386;2023-12-04T09:42:14;8.33;;;4.97;;
7917;SDS011;4004;42.624;23.386;2023-12-04T09:44:43;9.50;;;5.07;;
7917;SDS011;4004;42.624;23.386;2023-12-04T09:47:14;7.33;;;5.40;;
7917;SDS011;4004;42.624;23.386;2023-12-04T09:49:44;6.93;;;5.30;;
7917;SDS011;4004;42.624;23.386;2023-12-04T09:52:11;8.90;;;4.90;;
7917;SDS011;4004;42.624;23.386;2023-12-04T09:54:38;7.63;;;4.40;;
7917;SDS011;4004;42.624;23.386;2023-12-04T09:57:07;6.77;;;4.60;;
7917;SDS011;4004;42.624;23.386;2023-12-04T09:59:34;13.57;;;5.70;;
7917;SDS011;4004;42.624;23.386;2023-12-04T10:02:03;5.87;;;4.30;;
7917;SDS011;4004;42.624;23.386;2023-12-04T10:04:31;7.07;;;5.17;;
7917;SDS011;4004;42.624;23.386;2023-12-04T10:07:00;5.60;;;4.37;;
7917;SDS011;4004;42.624;23.386;2023-12-04T10:09:27;14.47;;;6.00;;
7917;SDS011;4004;42.624;23.386;2023-12-04T10:11:55;9.07;;;5.07;;
7917;SDS011;4004;42.624;23.386;2023-12-04T10:14:22;9.53;;;4.77;;
7917;SDS011;4004;42.624;23.386;2023-12-04T10:16:51;6.93;;;4.70;;
7917;SDS011;4004;42.624;23.386;2023-12-04T10:19:20;5.87;;;5.27;;
7917;SDS011;4004;42.624;23.386;2023-12-04T10:21:50;6.97;;;4.73;;
7917;SDS011;4004;42.624;23.386;2023-12-04T10:24:30;6.60;;;4.53;;
7917;SDS011;4004;42.624;23.386;2023-12-04T10:26:58;7.93;;;4.90;;
7917;SDS011;4004;42.624;23.386;2023-12-04T10:29:27;5.60;;;3.90;;
7917;SDS011;4004;42.624;23.386;2023-12-04T10:31:55;10.33;;;6.40;;
7917;SDS011;4004;42.624;23.386;2023-12-04T10:34:25;5.33;;;4.40;;
7917;SDS011;4004;42.624;23.386;2023-12-04T10:36:52;9.50;;;4.70;;
7917;SDS011;4004;42.624;23.386;2023-12-04T10:39:20;6.80;;;4.87;;
7917;SDS011;4004;42.624;23.386;2023-12-04T10:41:50;6.40;;;4.83;;
7917;SDS011;4004;42.624;23.386;2023-12-04T10:44:27;6.73;;;4.60;;
7917;SDS011;4004;42.624;23.386;2023-12-04T10:46:55;17.87;;;5.53;;
7917;SDS011;4004;42.624;23.386;2023-12-04T10:49:25;9.13;;;4.53;;
7917;SDS011;4004;42.624;23.386;2023-12-04T10:51:54;12.63;;;4.60;;
7917;SDS011;4004;42.624;23.386;2023-12-04T10:54:22;11.37;;;4.40;;
7917;SDS011;4004;42.624;23.386;2023-12-04T10:56:51;15.73;;;4.70;;
7917;SDS011;4004;42.624;23.386;2023-12-04T10:59:18;4.50;;;4.00;;
7917;SDS011;4004;42.624;23.386;2023-12-04T11:01:51;5.67;;;4.77;;
7917;SDS011;4004;42.624;23.386;2023-12-04T11:04:21;11.53;;;5.53;;
7917;SDS011;4004;42.624;23.386;2023-12-04T11:06:53;7.37;;;4.90;;
7917;SDS011;4004;42.624;23.386;2023-12-04T11:09:21;10.17;;;4.97;;
7917;SDS011;4004;42.624;23.386;2023-12-04T11:11:55;8.33;;;5.17;;
7917;SDS011;4004;42.624;23.386;2023-12-04T11:14:27;5.90;;;4.47;;
7917;SDS011;4004;42.624;23.386;2023-12-04T11:17:01;6.37;;;4.90;;
7917;SDS011;4004;42.624;23.386;2023-12-04T11:19:32;7.93;;;4.83;;
7917;SDS011;4004;42.624;23.386;2023-12-04T11:22:05;11.67;;;5.30;;
7917;SDS011;4004;42.624;23.386;2023-12-04T11:24:35;7.60;;;5.33;;
7917;SDS011;4004;42.624;23.386;2023-12-04T11:27:04;5.83;;;4.60;;
7917;SDS011;4004;42.624;23.386;2023-12-04T11:29:31;6.13;;;4.60;;
7917;SDS011;4004;42.624;23.386;2023-12-04T11:31:59;9.60;;;5.17;;
7917;SDS011;4004;42.624;23.386;2023-12-04T11:34:26;5.90;;;4.77;;
7917;SDS011;4004;42.624;23.386;2023-12-04T11:36:54;7.63;;;5.17;;
7917;SDS011;4004;42.624;23.386;2023-12-04T11:39:24;6.67;;;5.67;;
7917;SDS011;4004;42.624;23.386;2023-12-04T11:41:52;8.07;;;5.57;;
7917;SDS011;4004;42.624;23.386;2023-12-04T11:44:20;12.67;;;5.30;;
7917;SDS011;4004;42.624;23.386;2023-12-04T11:46:57;13.13;;;4.97;;
7917;SDS011;4004;42.624;23.386;2023-12-04T11:49:29;8.53;;;4.80;;
7917;SDS011;4004;42.624;23.386;2023-12-04T11:51:56;9.70;;;5.83;;
7917;SDS011;4004;42.624;23.386;2023-12-04T11:54:24;6.77;;;5.13;;
7917;SDS011;4004;42.624;23.386;2023-12-04T11:56:59;9.47;;;5.93;;
7917;SDS011;4004;42.624;23.386;2023-12-04T11:59:27;9.83;;;6.03;;
7917;SDS011;4004;42.624;23.386;2023-12-04T12:01:55;11.10;;;6.27;;
7917;SDS011;4004;42.624;23.386;2023-12-04T12:04:23;16.27;;;5.90;;
7917;SDS011;4004;42.624;23.386;2023-12-04T12:06:50;12.70;;;6.00;;
7917;SDS011;4004;42.624;23.386;2023-12-04T12:09:17;8.90;;;6.77;;
7917;SDS011;4004;42.624;23.386;2023-12-04T12:11:44;10.77;;;6.03;;
7917;SDS011;4004;42.624;23.386;2023-12-04T12:14:11;8.47;;;5.73;;
7917;SDS011;4004;42.624;23.386;2023-12-04T12:16:40;8.07;;;5.80;;
7917;SDS011;4004;42.624;23.386;2023-12-04T12:19:07;9.40;;;5.63;;
7917;SDS011;4004;42.624;23.386;2023-12-04T12:21:34;9.30;;;6.53;;
7917;SDS011;4004;42.624;23.386;2023-12-04T12:24:03;8.33;;;5.30;;
7917;SDS011;4004;42.624;23.386;2023-12-04T12:26:32;9.13;;;6.00;;
7917;SDS011;4004;42.624;23.386;2023-12-04T12:28:59;14.13;;;6.33;;
7917;SDS011;4004;42.624;23.386;2023-12-04T12:31:26;10.40;;;6.13;;
7917;SDS011;4004;42.624;23.386;2023-12-04T12:33:54;6.80;;;5.40;;
7917;SDS011;4004;42.624;23.386;2023-12-04T12:36:22;9.43;;;6.10;;
7917;SDS011;4004;42.624;23.386;2023-12-04T12:38:49;8.13;;;6.03;;
7917;SDS011;4004;42.624;23.386;2023-12-04T12:41:15;11.17;;;6.70;;
7917;SDS011;4004;42.624;23.386;2023-12-04T12:43:43;9.57;;;6.47;;
7917;SDS011;4004;42.624;23.386;2023-12-04T12:46:10;9.93;;;6.37;;
7917;SDS011;4004;42.624;23.386;2023-12-04T12:48:37;10.33;;;7.10;;
7917;SDS011;4004;42.624;23.386;2023-12-04T12:51:06;10.83;;;5.83;;
7917;SDS011;4004;42.624;23.386;2023-12-04T12:53:36;9.03;;;7.10;;
7917;SDS011;4004;42.624;23.386;2023-12-04T12:56:03;9.47;;;7.03;;
7917;SDS011;4004;42.624;23.386;2023-12-04T12:58:31;12.60;;;7.33;;
7917;SDS011;4004;42.624;23.386;2023-12-04T13:00:59;25.97;;;7.80;;
7917;SDS011;4004;42.624;23.386;2023-12-04T13:03:27;11.53;;;7.20;;
7917;SDS011;4004;42.624;23.386;2023-12-04T13:05:56;11.47;;;7.77;;
7917;SDS011;4004;42.624;23.386;2023-12-04T13:08:25;11.77;;;7.03;;
7917;SDS011;4004;42.624;23.386;2023-12-04T13:10:51;9.67;;;7.47;;
7917;SDS011;4004;42.624;23.386;2023-12-04T13:13:19;10.73;;;7.77;;
7917;SDS011;4004;42.624;23.386;2023-12-04T13:15:47;10.77;;;8.03;;
7917;SDS011;4004;42.624;23.386;2023-12-04T13:18:13;13.67;;;8.17;;
7917;SDS011;4004;42.624;23.386;2023-12-04T13:20:40;11.47;;;8.57;;
7917;SDS011;4004;42.624;23.386;2023-12-04T13:23:08;12.27;;;8.63;;
7917;SDS011;4004;42.624;23.386;2023-12-04T13:25:36;13.53;;;8.70;;
7917;SDS011;4004;42.624;23.386;2023-12-04T13:28:04;11.17;;;7.90;;
7917;SDS011;4004;42.624;23.386;2023-12-04T13:30:31;9.07;;;7.37;;
7917;SDS011;4004;42.624;23.386;2023-12-04T13:32:59;9.33;;;6.83;;
7917;SDS011;4004;42.624;23.386;2023-12-04T13:35:28;12.60;;;7.10;;
7917;SDS011;4004;42.624;23.386;2023-12-04T13:37:55;10.60;;;7.63;;
7917;SDS011;4004;42.624;23.386;2023-12-04T13:40:24;10.33;;;7.13;;
7917;SDS011;4004;42.624;23.386;2023-12-04T13:42:54;12.77;;;7.50;;
7917;SDS011;4004;42.624;23.386;2023-12-04T13:45:39;9.43;;;7.10;;
7917;SDS011;4004;42.624;23.386;2023-12-04T13:48:05;10.53;;;8.00;;
7917;SDS011;4004;42.624;23.386;2023-12-04T13:50:32;14.20;;;7.60;;
7917;SDS011;4004;42.624;23.386;2023-12-04T13:52:59;12.40;;;7.87;;
7917;SDS011;4004;42.624;23.386;2023-12-04T13:55:26;8.97;;;6.23;;
7917;SDS011;4004;42.624;23.386;2023-12-04T13:58:22;9.00;;;6.63;;
7917;SDS011;4004;42.624;23.386;2023-12-04T14:01:04;12.63;;;6.90;;
7917;SDS011;4004;42.624;23.386;2023-12-04T14:03:38;9.07;;;6.30;;
7917;SDS011;4004;42.624;23.386;2023-12-04T14:06:06;7.97;;;6.83;;
7917;SDS011;4004;42.624;23.386;2023-12-04T14:08:33;10.80;;;6.90;;
7917;SDS011;4004;42.624;23.386;2023-12-04T14:11:01;9.50;;;7.47;;
7917;SDS011;4004;42.624;23.386;2023-12-04T14:13:29;13.13;;;7.37;;
7917;SDS011;4004;42.624;23.386;2023-12-04T14:15:56;15.63;;;7.90;;
7917;SDS011;4004;42.624;23.386;2023-12-04T14:18:23;13.40;;;7.00;;
7917;SDS011;4004;42.624;23.386;2023-12-04T14:20:51;13.07;;;6.93;;
7917;SDS011;4004;42.624;23.386;2023-12-04T14:23:17;12.67;;;7.43;;
7917;SDS011;4004;42.624;23.386;2023-12-04T14:25:45;14.10;;;8.10;;
7917;SDS011;4004;42.624;23.386;2023-12-04T14:28:13;12.43;;;8.80;;
7917;SDS011;4004;42.624;23.386;2023-12-04T14:30:41;11.37;;;9.17;;
7917;SDS011;4004;42.624;23.386;2023-12-04T14:33:09;13.13;;;9.63;;
7917;SDS011;4004;42.624;23.386;2023-12-04T14:35:36;15.00;;;9.63;;
7917;SDS011;4004;42.624;23.386;2023-12-04T14:38:03;14.40;;;10.83;;
7917;SDS011;4004;42.624;23.386;2023-12-04T14:40:30;18.70;;;11.50;;
7917;SDS011;4004;42.624;23.386;2023-12-04T14:42:57;17.03;;;11.70;;
7917;SDS011;4004;42.624;23.386;2023-12-04T14:45:24;17.30;;;10.67;;
7917;SDS011;4004;42.624;23.386;2023-12-04T14:47:52;22.83;;;11.43;;
7917;SDS011;4004;42.624;23.386;2023-12-04T14:50:22;21.90;;;13.97;;
7917;SDS011;4004;42.624;23.386;2023-12-04T14:52:49;30.23;;;14.90;;
7917;SDS011;4004;42.624;23.386;2023-12-04T14:55:17;33.03;;;13.77;;
7917;SDS011;4004;42.624;23.386;2023-12-04T14:58:30;20.30;;;12.30;;
7917;SDS011;4004;42.624;23.386;2023-12-04T15:01:14;21.17;;;10.87;;
7917;SDS011;4004;42.624;23.386;2023-12-04T15:04:00;24.63;;;10.77;;